sensor_id;sensor_type;location;lat;lon;timestamp;P1;durP1;ratioP1;P2;durP2;ratioP2
13411;SDS011;6777;51.474;7.218;2022-08-19T00:00:35;3.50;;;3.10;;
13411;SDS011;6777;51.474;7.218;2022-08-19T00:03:03;3.43;;;3.23;;
13411;SDS011;6777;51.474;7.218;2022-08-19T00:05:31;3.40;;;3.20;;
13411;SDS011;6777;51.474;7.218;2022-08-19T00:08:01;3.60;;;3.40;;
13411;SDS011;6777;51.474;7.218;2022-08-19T00:10:29;3.67;;;3.30;;
13411;SDS011;6777;51.474;7.218;2022-08-19T00:12:56;3.60;;;3.30;;
13411;SDS011;6777;51.474;7.218;2022-08-19T00:15:23;3.10;;;2.90;;
13411;SDS011;6777;51.474;7.218;2022-08-19T00:17:50;3.50;;;3.20;;
13411;SDS011;6777;51.474;7.218;2022-08-19T00:20:18;3.33;;;3.13;;
13411;SDS011;6777;51.474;7.218;2022-08-19T00:22:47;3.77;;;3.47;;
13411;SDS011;6777;51.474;7.218;2022-08-19T00:25:16;3.20;;;2.90;;
13411;SDS011;6777;51.474;7.218;2022-08-19T00:27:43;3.40;;;3.20;;
13411;SDS011;6777;51.474;7.218;2022-08-19T00:30:12;3.70;;;3.40;;
13411;SDS011;6777;51.474;7.218;2022-08-19T00:32:40;3.37;;;3.10;;
13411;SDS011;6777;51.474;7.218;2022-08-19T00:35:07;3.20;;;3.00;;
13411;SDS011;6777;51.474;7.218;2022-08-19T00:37:35;3.60;;;3.27;;
13411;SDS011;6777;51.474;7.218;2022-08-19T00:40:04;3.13;;;2.90;;
13411;SDS011;6777;51.474;7.218;2022-08-19T00:42:34;3.57;;;3.27;;
13411;SDS011;6777;51.474;7.218;2022-08-19T00:45:02;3.40;;;3.10;;
13411;SDS011;6777;51.474;7.218;2022-08-19T00:47:38;3.37;;;3.17;;
13411;SDS011;6777;51.474;7.218;2022-08-19T00:50:06;3.43;;;3.13;;
13411;SDS011;6777;51.474;7.218;2022-08-19T00:52:37;3.70;;;3.40;;
13411;SDS011;6777;51.474;7.218;2022-08-19T00:55:11;3.67;;;3.37;;
13411;SDS011;6777;51.474;7.218;2022-08-19T00:57:44;3.80;;;3.50;;
13411;SDS011;6777;51.474;7.218;2022-08-19T01:00:17;3.73;;;3.33;;
13411;SDS011;6777;51.474;7.218;2022-08-19T01:02:46;4.13;;;3.40;;
13411;SDS011;6777;51.474;7.218;2022-08-19T01:05:14;3.77;;;3.47;;
13411;SDS011;6777;51.474;7.218;2022-08-19T01:07:45;4.00;;;3.70;;
13411;SDS011;6777;51.474;7.218;2022-08-19T01:10:15;3.80;;;3.50;;
13411;SDS011;6777;51.474;7.218;2022-08-19T01:12:47;3.70;;;3.50;;
13411;SDS011;6777;51.474;7.218;2022-08-19T01:15:16;3.97;;;3.67;;
13411;SDS011;6777;51.474;7.218;2022-08-19T01:17:46;3.80;;;3.50;;
13411;SDS011;6777;51.474;7.218;2022-08-19T01:20:16;3.60;;;3.30;;
13411;SDS011;6777;51.474;7.218;2022-08-19T01:22:49;4.87;;;3.40;;
13411;SDS011;6777;51.474;7.218;2022-08-19T01:25:20;4.43;;;3.80;;
13411;SDS011;6777;51.474;7.218;2022-08-19T01:27:51;4.07;;;3.77;;
13411;SDS011;6777;51.474;7.218;2022-08-19T01:30:20;4.10;;;3.80;;
13411;SDS011;6777;51.474;7.218;2022-08-19T01:32:51;3.90;;;3.60;;
13411;SDS011;6777;51.474;7.218;2022-08-19T01:35:20;4.70;;;4.30;;
13411;SDS011;6777;51.474;7.218;2022-08-19T01:37:52;5.17;;;4.77;;
13411;SDS011;6777;51.474;7.218;2022-08-19T01:40:21;4.63;;;4.23;;
13411;SDS011;6777;51.474;7.218;2022-08-19T01:42:52;4.97;;;4.57;;
13411;SDS011;6777;51.474;7.218;2022-08-19T01:45:21;5.47;;;5.07;;
13411;SDS011;6777;51.474;7.218;2022-08-19T01:47:51;5.63;;;4.80;;
13411;SDS011;6777;51.474;7.218;2022-08-19T01:50:19;4.73;;;4.33;;
13411;SDS011;6777;51.474;7.218;2022-08-19T01:52:46;4.60;;;4.30;;
13411;SDS011;6777;51.474;7.218;2022-08-19T01:55:16;4.53;;;4.13;;
13411;SDS011;6777;51.474;7.218;2022-08-19T01:57:47;6.30;;;4.33;;
13411;SDS011;6777;51.474;7.218;2022-08-19T02:00:18;4.60;;;4.20;;
13411;SDS011;6777;51.474;7.218;2022-08-19T02:02:48;4.97;;;4.57;;
13411;SDS011;6777;51.474;7.218;2022-08-19T02:05:16;4.90;;;4.50;;
13411;SDS011;6777;51.474;7.218;2022-08-19T02:07:46;4.70;;;4.30;;
13411;SDS011;6777;51.474;7.218;2022-08-19T02:10:17;4.53;;;4.13;;
13411;SDS011;6777;51.474;7.218;2022-08-19T02:12:47;4.87;;;4.47;;
13411;SDS011;6777;51.474;7.218;2022-08-19T02:15:16;5.30;;;4.80;;
13411;SDS011;6777;51.474;7.218;2022-08-19T02:17:44;5.07;;;4.67;;
13411;SDS011;6777;51.474;7.218;2022-08-19T02:20:12;4.60;;;4.20;;
13411;SDS011;6777;51.474;7.218;2022-08-19T02:22:39;5.60;;;5.10;;
13411;SDS011;6777;51.474;7.218;2022-08-19T02:25:08;5.03;;;4.53;;
13411;SDS011;6777;51.474;7.218;2022-08-19T02:27:37;4.37;;;3.97;;
13411;SDS011;6777;51.474;7.218;2022-08-19T02:30:06;4.77;;;4.37;;
13411;SDS011;6777;51.474;7.218;2022-08-19T02:32:36;4.63;;;4.23;;
13411;SDS011;6777;51.474;7.218;2022-08-19T02:35:04;4.50;;;4.20;;
13411;SDS011;6777;51.474;7.218;2022-08-19T02:37:32;4.23;;;3.83;;
13411;SDS011;6777;51.474;7.218;2022-08-19T02:40:17;4.80;;;4.40;;
13411;SDS011;6777;51.474;7.218;2022-08-19T02:42:46;4.67;;;4.37;;
13411;SDS011;6777;51.474;7.218;2022-08-19T02:45:13;4.40;;;4.00;;
13411;SDS011;6777;51.474;7.218;2022-08-19T02:47:41;4.40;;;4.10;;
13411;SDS011;6777;51.474;7.218;2022-08-19T02:50:08;4.47;;;4.17;;
13411;SDS011;6777;51.474;7.218;2022-08-19T02:52:35;4.87;;;4.47;;
13411;SDS011;6777;51.474;7.218;2022-08-19T02:55:03;4.93;;;4.53;;
13411;SDS011;6777;51.474;7.218;2022-08-19T02:57:31;4.63;;;4.30;;
13411;SDS011;6777;51.474;7.218;2022-08-19T03:00:00;4.73;;;4.27;;
13411;SDS011;6777;51.474;7.218;2022-08-19T03:02:30;5.40;;;4.90;;
13411;SDS011;6777;51.474;7.218;2022-08-19T03:04:58;4.50;;;4.20;;
13411;SDS011;6777;51.474;7.218;2022-08-19T03:07:25;4.67;;;4.30;;
13411;SDS011;6777;51.474;7.218;2022-08-19T03:09:52;4.60;;;4.23;;
13411;SDS011;6777;51.474;7.218;2022-08-19T03:12:19;4.23;;;3.93;;
13411;SDS011;6777;51.474;7.218;2022-08-19T03:14:46;4.33;;;3.93;;
13411;SDS011;6777;51.474;7.218;2022-08-19T03:17:14;4.10;;;3.80;;
13411;SDS011;6777;51.474;7.218;2022-08-19T03:19:41;4.37;;;3.97;;
13411;SDS011;6777;51.474;7.218;2022-08-19T03:22:08;3.77;;;3.50;;
13411;SDS011;6777;51.474;7.218;2022-08-19T03:24:35;4.10;;;3.80;;
13411;SDS011;6777;51.474;7.218;2022-08-19T03:27:03;4.37;;;4.07;;
13411;SDS011;6777;51.474;7.218;2022-08-19T03:29:30;3.90;;;3.70;;
13411;SDS011;6777;51.474;7.218;2022-08-19T03:31:58;3.67;;;3.37;;
13411;SDS011;6777;51.474;7.218;2022-08-19T03:34:29;4.17;;;3.87;;
13411;SDS011;6777;51.474;7.218;2022-08-19T03:37:01;3.97;;;3.67;;
13411;SDS011;6777;51.474;7.218;2022-08-19T03:39:31;4.27;;;3.87;;
13411;SDS011;6777;51.474;7.218;2022-08-19T03:41:59;4.07;;;3.77;;
13411;SDS011;6777;51.474;7.218;2022-08-19T03:44:27;3.90;;;3.60;;
13411;SDS011;6777;51.474;7.218;2022-08-19T03:46:58;3.87;;;3.57;;
13411;SDS011;6777;51.474;7.218;2022-08-19T03:49:27;4.37;;;3.57;;
13411;SDS011;6777;51.474;7.218;2022-08-19T03:51:58;4.17;;;3.87;;
13411;SDS011;6777;51.474;7.218;2022-08-19T03:54:26;4.37;;;4.07;;
13411;SDS011;6777;51.474;7.218;2022-08-19T03:56:54;4.43;;;4.03;;
13411;SDS011;6777;51.474;7.218;2022-08-19T03:59:23;4.10;;;3.80;;
13411;SDS011;6777;51.474;7.218;2022-08-19T04:01:53;4.70;;;4.13;;
13411;SDS011;6777;51.474;7.218;2022-08-19T04:04:22;4.20;;;3.87;;
13411;SDS011;6777;51.474;7.218;2022-08-19T04:06:52;4.53;;;4.13;;
13411;SDS011;6777;51.474;7.218;2022-08-19T04:09:19;4.77;;;4.37;;
13411;SDS011;6777;51.474;7.218;2022-08-19T04:11:48;4.43;;;4.03;;
13411;SDS011;6777;51.474;7.218;2022-08-19T04:14:20;4.87;;;4.20;;
13411;SDS011;6777;51.474;7.218;2022-08-19T04:16:50;4.87;;;4.40;;
13411;SDS011;6777;51.474;7.218;2022-08-19T04:19:18;4.67;;;4.27;;
13411;SDS011;6777;51.474;7.218;2022-08-19T04:21:48;4.90;;;4.50;;
13411;SDS011;6777;51.474;7.218;2022-08-19T04:24:20;4.80;;;4.40;;
13411;SDS011;6777;51.474;7.218;2022-08-19T04:26:48;4.90;;;4.50;;
13411;SDS011;6777;51.474;7.218;2022-08-19T04:29:17;5.07;;;4.67;;
13411;SDS011;6777;51.474;7.218;2022-08-19T04:31:50;4.97;;;4.57;;
13411;SDS011;6777;51.474;7.218;2022-08-19T04:34:19;5.20;;;4.77;;
13411;SDS011;6777;51.474;7.218;2022-08-19T04:36:49;5.50;;;4.73;;
13411;SDS011;6777;51.474;7.218;2022-08-19T04:39:21;4.67;;;4.27;;
13411;SDS011;6777;51.474;7.218;2022-08-19T04:42:12;4.73;;;4.43;;
13411;SDS011;6777;51.474;7.218;2022-08-19T04:44:58;6.17;;;4.83;;
13411;SDS011;6777;51.474;7.218;2022-08-19T04:47:25;5.37;;;4.87;;
13411;SDS011;6777;51.474;7.218;2022-08-19T04:49:52;5.53;;;4.90;;
13411;SDS011;6777;51.474;7.218;2022-08-19T04:52:21;5.87;;;5.30;;
13411;SDS011;6777;51.474;7.218;2022-08-19T04:54:48;5.30;;;4.67;;
13411;SDS011;6777;51.474;7.218;2022-08-19T04:57:15;5.87;;;5.30;;
13411;SDS011;6777;51.474;7.218;2022-08-19T04:59:42;5.90;;;5.00;;
13411;SDS011;6777;51.474;7.218;2022-08-19T05:02:09;5.10;;;4.60;;
13411;SDS011;6777;51.474;7.218;2022-08-19T05:04:36;5.93;;;5.43;;
13411;SDS011;6777;51.474;7.218;2022-08-19T05:07:04;5.43;;;4.97;;
13411;SDS011;6777;51.474;7.218;2022-08-19T05:09:33;6.37;;;5.27;;
13411;SDS011;6777;51.474;7.218;2022-08-19T05:12:00;5.47;;;4.97;;
13411;SDS011;6777;51.474;7.218;2022-08-19T05:14:28;5.37;;;4.87;;
13411;SDS011;6777;51.474;7.218;2022-08-19T05:16:55;5.73;;;5.23;;
13411;SDS011;6777;51.474;7.218;2022-08-19T05:19:22;5.87;;;5.37;;
13411;SDS011;6777;51.474;7.218;2022-08-19T05:22:07;5.53;;;5.03;;
13411;SDS011;6777;51.474;7.218;2022-08-19T05:24:52;5.23;;;4.83;;
13411;SDS011;6777;51.474;7.218;2022-08-19T05:27:20;6.47;;;5.30;;
13411;SDS011;6777;51.474;7.218;2022-08-19T05:29:47;6.93;;;5.70;;
13411;SDS011;6777;51.474;7.218;2022-08-19T05:32:14;6.53;;;5.80;;
13411;SDS011;6777;51.474;7.218;2022-08-19T05:34:41;6.67;;;6.07;;
13411;SDS011;6777;51.474;7.218;2022-08-19T05:37:08;6.50;;;5.73;;
13411;SDS011;6777;51.474;7.218;2022-08-19T05:39:35;6.60;;;6.03;;
13411;SDS011;6777;51.474;7.218;2022-08-19T05:42:06;7.30;;;6.40;;
13411;SDS011;6777;51.474;7.218;2022-08-19T05:44:36;6.43;;;5.87;;
13411;SDS011;6777;51.474;7.218;2022-08-19T05:47:08;6.67;;;6.07;;
13411;SDS011;6777;51.474;7.218;2022-08-19T05:49:36;6.80;;;6.10;;
13411;SDS011;6777;51.474;7.218;2022-08-19T05:52:03;6.60;;;6.03;;
13411;SDS011;6777;51.474;7.218;2022-08-19T05:54:32;7.33;;;6.37;;
13411;SDS011;6777;51.474;7.218;2022-08-19T05:57:01;7.47;;;6.43;;
13411;SDS011;6777;51.474;7.218;2022-08-19T05:59:30;7.63;;;6.90;;
13411;SDS011;6777;51.474;7.218;2022-08-19T06:01:58;7.60;;;6.80;;
13411;SDS011;6777;51.474;7.218;2022-08-19T06:04:25;6.97;;;6.07;;
13411;SDS011;6777;51.474;7.218;2022-08-19T06:06:53;7.30;;;6.47;;
13411;SDS011;6777;51.474;7.218;2022-08-19T06:09:21;7.03;;;6.33;;
13411;SDS011;6777;51.474;7.218;2022-08-19T06:11:49;8.10;;;6.90;;
13411;SDS011;6777;51.474;7.218;2022-08-19T06:14:20;7.37;;;6.67;;
13411;SDS011;6777;51.474;7.218;2022-08-19T06:16:51;7.40;;;6.70;;
13411;SDS011;6777;51.474;7.218;2022-08-19T06:19:19;6.97;;;6.37;;
13411;SDS011;6777;51.474;7.218;2022-08-19T06:21:50;7.17;;;6.23;;
13411;SDS011;6777;51.474;7.218;2022-08-19T06:24:19;7.07;;;6.40;;
13411;SDS011;6777;51.474;7.218;2022-08-19T06:26:50;7.93;;;5.90;;
13411;SDS011;6777;51.474;7.218;2022-08-19T06:29:21;6.17;;;5.57;;
13411;SDS011;6777;51.474;7.218;2022-08-19T06:31:52;6.70;;;6.00;;
13411;SDS011;6777;51.474;7.218;2022-08-19T06:34:21;7.40;;;5.73;;
13411;SDS011;6777;51.474;7.218;2022-08-19T06:36:51;7.33;;;6.57;;
13411;SDS011;6777;51.474;7.218;2022-08-19T06:39:20;6.83;;;6.13;;
13411;SDS011;6777;51.474;7.218;2022-08-19T06:41:50;5.63;;;5.17;;
13411;SDS011;6777;51.474;7.218;2022-08-19T06:44:20;6.43;;;5.60;;
13411;SDS011;6777;51.474;7.218;2022-08-19T06:46:51;7.60;;;6.80;;
13411;SDS011;6777;51.474;7.218;2022-08-19T06:49:19;8.33;;;7.63;;
13411;SDS011;6777;51.474;7.218;2022-08-19T06:51:47;8.63;;;7.73;;
13411;SDS011;6777;51.474;7.218;2022-08-19T06:54:16;8.63;;;7.43;;
13411;SDS011;6777;51.474;7.218;2022-08-19T06:56:44;8.50;;;7.57;;
13411;SDS011;6777;51.474;7.218;2022-08-19T06:59:13;8.70;;;7.90;;
13411;SDS011;6777;51.474;7.218;2022-08-19T07:01:44;8.40;;;7.50;;
13411;SDS011;6777;51.474;7.218;2022-08-19T07:04:17;8.13;;;7.37;;
13411;SDS011;6777;51.474;7.218;2022-08-19T07:06:47;8.47;;;7.67;;
13411;SDS011;6777;51.474;7.218;2022-08-19T07:09:15;8.70;;;7.87;;
13411;SDS011;6777;51.474;7.218;2022-08-19T07:11:45;8.90;;;7.70;;
13411;SDS011;6777;51.474;7.218;2022-08-19T07:14:14;8.87;;;7.27;;
13411;SDS011;6777;51.474;7.218;2022-08-19T07:16:43;8.83;;;7.43;;
13411;SDS011;6777;51.474;7.218;2022-08-19T07:19:11;8.73;;;7.80;;
13411;SDS011;6777;51.474;7.218;2022-08-19T07:21:41;9.33;;;8.07;;
13411;SDS011;6777;51.474;7.218;2022-08-19T07:24:08;8.83;;;7.50;;
13411;SDS011;6777;51.474;7.218;2022-08-19T07:26:38;9.27;;;7.80;;
13411;SDS011;6777;51.474;7.218;2022-08-19T07:29:08;10.10;;;9.10;;
13411;SDS011;6777;51.474;7.218;2022-08-19T07:31:36;9.23;;;8.33;;
13411;SDS011;6777;51.474;7.218;2022-08-19T07:34:04;8.20;;;7.30;;
13411;SDS011;6777;51.474;7.218;2022-08-19T07:36:34;9.00;;;7.13;;
13411;SDS011;6777;51.474;7.218;2022-08-19T07:39:07;7.97;;;7.17;;
13411;SDS011;6777;51.474;7.218;2022-08-19T07:41:37;9.57;;;7.03;;
13411;SDS011;6777;51.474;7.218;2022-08-19T07:44:05;8.50;;;7.60;;
13411;SDS011;6777;51.474;7.218;2022-08-19T07:46:38;8.50;;;7.60;;
13411;SDS011;6777;51.474;7.218;2022-08-19T07:49:10;7.97;;;7.17;;
13411;SDS011;6777;51.474;7.218;2022-08-19T07:51:42;8.33;;;6.40;;
13411;SDS011;6777;51.474;7.218;2022-08-19T07:54:14;8.70;;;7.80;;
13411;SDS011;6777;51.474;7.218;2022-08-19T07:56:42;7.23;;;6.53;;
13411;SDS011;6777;51.474;7.218;2022-08-19T07:59:09;8.73;;;7.93;;
13411;SDS011;6777;51.474;7.218;2022-08-19T08:01:36;9.23;;;7.13;;
13411;SDS011;6777;51.474;7.218;2022-08-19T08:04:05;7.73;;;6.93;;
13411;SDS011;6777;51.474;7.218;2022-08-19T08:06:50;7.33;;;6.40;;
13411;SDS011;6777;51.474;7.218;2022-08-19T08:09:37;8.40;;;6.80;;
13411;SDS011;6777;51.474;7.218;2022-08-19T08:12:08;8.77;;;7.97;;
13411;SDS011;6777;51.474;7.218;2022-08-19T08:14:39;6.80;;;6.20;;
13411;SDS011;6777;51.474;7.218;2022-08-19T08:17:09;7.90;;;7.20;;
13411;SDS011;6777;51.474;7.218;2022-08-19T08:19:38;7.87;;;7.17;;
13411;SDS011;6777;51.474;7.218;2022-08-19T08:22:06;9.00;;;7.93;;
13411;SDS011;6777;51.474;7.218;2022-08-19T08:24:56;9.00;;;7.03;;
13411;SDS011;6777;51.474;7.218;2022-08-19T08:27:24;8.80;;;7.90;;
13411;SDS011;6777;51.474;7.218;2022-08-19T08:29:54;10.30;;;8.30;;
13411;SDS011;6777;51.474;7.218;2022-08-19T08:32:21;11.37;;;10.20;;
13411;SDS011;6777;51.474;7.218;2022-08-19T08:34:48;11.43;;;10.23;;
13411;SDS011;6777;51.474;7.218;2022-08-19T08:37:15;9.67;;;8.67;;
13411;SDS011;6777;51.474;7.218;2022-08-19T08:39:42;9.80;;;8.90;;
13411;SDS011;6777;51.474;7.218;2022-08-19T08:42:11;11.07;;;8.57;;
13411;SDS011;6777;51.474;7.218;2022-08-19T08:44:48;10.17;;;8.63;;
13411;SDS011;6777;51.474;7.218;2022-08-19T08:47:22;11.23;;;9.87;;
13411;SDS011;6777;51.474;7.218;2022-08-19T08:49:54;10.00;;;9.00;;
13411;SDS011;6777;51.474;7.218;2022-08-19T08:52:26;10.00;;;9.00;;
13411;SDS011;6777;51.474;7.218;2022-08-19T08:55:03;11.07;;;9.93;;
13411;SDS011;6777;51.474;7.218;2022-08-19T08:57:37;11.23;;;10.03;;
13411;SDS011;6777;51.474;7.218;2022-08-19T09:00:11;11.37;;;10.27;;
13411;SDS011;6777;51.474;7.218;2022-08-19T09:02:44;13.43;;;12.13;;
13411;SDS011;6777;51.474;7.218;2022-08-19T09:05:11;12.07;;;10.87;;
13411;SDS011;6777;51.474;7.218;2022-08-19T09:07:40;13.40;;;12.13;;
13411;SDS011;6777;51.474;7.218;2022-08-19T09:10:19;12.40;;;11.10;;
13411;SDS011;6777;51.474;7.218;2022-08-19T09:13:01;13.20;;;11.87;;
13411;SDS011;6777;51.474;7.218;2022-08-19T09:15:40;16.53;;;14.90;;
13411;SDS011;6777;51.474;7.218;2022-08-19T09:18:11;15.30;;;13.90;;
13411;SDS011;6777;51.474;7.218;2022-08-19T09:20:38;13.83;;;12.57;;
13411;SDS011;6777;51.474;7.218;2022-08-19T09:23:05;15.67;;;14.17;;
13411;SDS011;6777;51.474;7.218;2022-08-19T09:25:33;15.30;;;13.83;;
13411;SDS011;6777;51.474;7.218;2022-08-19T09:28:06;15.87;;;14.27;;
13411;SDS011;6777;51.474;7.218;2022-08-19T09:30:34;16.70;;;15.17;;
13411;SDS011;6777;51.474;7.218;2022-08-19T09:33:07;16.27;;;14.77;;
13411;SDS011;6777;51.474;7.218;2022-08-19T09:35:34;14.77;;;13.40;;
13411;SDS011;6777;51.474;7.218;2022-08-19T09:38:01;14.87;;;13.27;;
13411;SDS011;6777;51.474;7.218;2022-08-19T09:40:29;13.13;;;11.87;;
13411;SDS011;6777;51.474;7.218;2022-08-19T09:42:57;14.67;;;13.07;;
13411;SDS011;6777;51.474;7.218;2022-08-19T09:45:27;14.53;;;13.13;;
13411;SDS011;6777;51.474;7.218;2022-08-19T09:47:54;14.53;;;13.13;;
13411;SDS011;6777;51.474;7.218;2022-08-19T09:50:23;15.80;;;14.40;;
13411;SDS011;6777;51.474;7.218;2022-08-19T09:52:50;18.60;;;14.37;;
13411;SDS011;6777;51.474;7.218;2022-08-19T09:55:22;15.30;;;13.80;;
13411;SDS011;6777;51.474;7.218;2022-08-19T09:57:49;13.03;;;11.83;;
13411;SDS011;6777;51.474;7.218;2022-08-19T10:00:16;12.90;;;11.73;;
13411;SDS011;6777;51.474;7.218;2022-08-19T10:02:45;13.70;;;12.40;;
13411;SDS011;6777;51.474;7.218;2022-08-19T10:05:12;15.30;;;11.50;;
13411;SDS011;6777;51.474;7.218;2022-08-19T10:07:56;11.10;;;10.10;;
13411;SDS011;6777;51.474;7.218;2022-08-19T10:10:25;12.23;;;10.37;;
13411;SDS011;6777;51.474;7.218;2022-08-19T10:12:53;10.57;;;9.20;;
13411;SDS011;6777;51.474;7.218;2022-08-19T10:15:20;10.10;;;9.10;;
13411;SDS011;6777;51.474;7.218;2022-08-19T10:17:48;9.90;;;9.00;;
13411;SDS011;6777;51.474;7.218;2022-08-19T10:20:15;9.50;;;8.70;;
13411;SDS011;6777;51.474;7.218;2022-08-19T10:22:43;10.63;;;8.63;;
13411;SDS011;6777;51.474;7.218;2022-08-19T10:25:10;8.20;;;7.40;;
13411;SDS011;6777;51.474;7.218;2022-08-19T10:27:42;8.47;;;7.67;;
13411;SDS011;6777;51.474;7.218;2022-08-19T10:30:10;8.27;;;7.23;;
13411;SDS011;6777;51.474;7.218;2022-08-19T10:32:38;7.80;;;7.00;;
13411;SDS011;6777;51.474;7.218;2022-08-19T10:35:07;8.67;;;7.77;;
13411;SDS011;6777;51.474;7.218;2022-08-19T10:37:35;8.77;;;7.90;;
13411;SDS011;6777;51.474;7.218;2022-08-19T10:40:03;7.90;;;7.17;;
13411;SDS011;6777;51.474;7.218;2022-08-19T10:42:35;7.07;;;6.50;;
13411;SDS011;6777;51.474;7.218;2022-08-19T10:45:04;7.93;;;6.97;;
13411;SDS011;6777;51.474;7.218;2022-08-19T10:47:32;7.70;;;7.00;;
13411;SDS011;6777;51.474;7.218;2022-08-19T10:49:59;9.47;;;8.67;;
13411;SDS011;6777;51.474;7.218;2022-08-19T10:52:46;8.10;;;7.30;;
13411;SDS011;6777;51.474;7.218;2022-08-19T10:55:15;8.10;;;7.40;;
13411;SDS011;6777;51.474;7.218;2022-08-19T10:58:01;8.57;;;7.77;;
13411;SDS011;6777;51.474;7.218;2022-08-19T11:00:31;8.50;;;7.70;;
13411;SDS011;6777;51.474;7.218;2022-08-19T11:02:58;8.70;;;7.87;;
13411;SDS011;6777;51.474;7.218;2022-08-19T11:05:25;8.50;;;7.80;;
13411;SDS011;6777;51.474;7.218;2022-08-19T11:07:54;9.10;;;8.20;;
13411;SDS011;6777;51.474;7.218;2022-08-19T11:10:21;9.10;;;8.23;;
13411;SDS011;6777;51.474;7.218;2022-08-19T11:12:48;10.67;;;9.73;;
13411;SDS011;6777;51.474;7.218;2022-08-19T11:19:00;11.23;;;10.20;;
13411;SDS011;6777;51.474;7.218;2022-08-19T11:21:28;10.63;;;9.73;;
13411;SDS011;6777;51.474;7.218;2022-08-19T11:24:00;11.17;;;10.07;;
13411;SDS011;6777;51.474;7.218;2022-08-19T11:26:31;10.00;;;9.03;;
13411;SDS011;6777;51.474;7.218;2022-08-19T11:28:59;10.70;;;9.70;;
13411;SDS011;6777;51.474;7.218;2022-08-19T11:31:29;10.67;;;9.63;;
13411;SDS011;6777;51.474;7.218;2022-08-19T11:33:58;9.50;;;8.60;;
13411;SDS011;6777;51.474;7.218;2022-08-19T11:36:28;9.83;;;8.97;;
13411;SDS011;6777;51.474;7.218;2022-08-19T11:38:58;11.13;;;9.90;;
13411;SDS011;6777;51.474;7.218;2022-08-19T11:41:26;10.80;;;9.87;;
13411;SDS011;6777;51.474;7.218;2022-08-19T11:43:53;10.27;;;8.83;;
13411;SDS011;6777;51.474;7.218;2022-08-19T11:46:22;10.67;;;9.67;;
13411;SDS011;6777;51.474;7.218;2022-08-19T11:48:54;10.47;;;9.53;;
13411;SDS011;6777;51.474;7.218;2022-08-19T11:51:22;10.50;;;9.60;;
13411;SDS011;6777;51.474;7.218;2022-08-19T11:53:51;9.10;;;8.30;;
13411;SDS011;6777;51.474;7.218;2022-08-19T11:56:20;10.47;;;9.50;;
13411;SDS011;6777;51.474;7.218;2022-08-19T11:58:49;8.60;;;7.90;;
13411;SDS011;6777;51.474;7.218;2022-08-19T12:01:17;10.57;;;9.40;;
13411;SDS011;6777;51.474;7.218;2022-08-19T12:03:47;8.80;;;8.00;;
13411;SDS011;6777;51.474;7.218;2022-08-19T12:06:19;8.00;;;6.80;;
13411;SDS011;6777;51.474;7.218;2022-08-19T12:08:50;7.50;;;6.80;;
13411;SDS011;6777;51.474;7.218;2022-08-19T12:11:18;6.87;;;6.37;;
13411;SDS011;6777;51.474;7.218;2022-08-19T12:13:47;7.20;;;6.50;;
13411;SDS011;6777;51.474;7.218;2022-08-19T12:16:16;7.87;;;7.17;;
13411;SDS011;6777;51.474;7.218;2022-08-19T12:18:46;7.93;;;7.23;;
13411;SDS011;6777;51.474;7.218;2022-08-19T12:21:13;7.00;;;6.40;;
13411;SDS011;6777;51.474;7.218;2022-08-19T12:23:43;7.60;;;7.00;;
13411;SDS011;6777;51.474;7.218;2022-08-19T12:26:14;8.13;;;7.43;;
13411;SDS011;6777;51.474;7.218;2022-08-19T12:28:43;7.47;;;6.77;;
13411;SDS011;6777;51.474;7.218;2022-08-19T12:31:11;7.27;;;6.67;;
13411;SDS011;6777;51.474;7.218;2022-08-19T12:33:38;7.10;;;6.40;;
13411;SDS011;6777;51.474;7.218;2022-08-19T12:36:07;6.67;;;6.17;;
13411;SDS011;6777;51.474;7.218;2022-08-19T12:38:36;6.57;;;6.07;;
13411;SDS011;6777;51.474;7.218;2022-08-19T12:41:05;6.50;;;6.00;;
13411;SDS011;6777;51.474;7.218;2022-08-19T12:43:35;7.07;;;5.30;;
13411;SDS011;6777;51.474;7.218;2022-08-19T12:46:04;4.90;;;4.60;;
13411;SDS011;6777;51.474;7.218;2022-08-19T12:48:32;4.93;;;4.60;;
13411;SDS011;6777;51.474;7.218;2022-08-19T12:51:05;5.50;;;5.03;;
13411;SDS011;6777;51.474;7.218;2022-08-19T12:53:34;5.40;;;5.00;;
13411;SDS011;6777;51.474;7.218;2022-08-19T12:56:02;5.40;;;5.00;;
13411;SDS011;6777;51.474;7.218;2022-08-19T12:58:30;4.77;;;4.37;;
13411;SDS011;6777;51.474;7.218;2022-08-19T13:00:59;5.10;;;4.70;;
13411;SDS011;6777;51.474;7.218;2022-08-19T13:03:33;4.50;;;4.20;;
13411;SDS011;6777;51.474;7.218;2022-08-19T13:06:02;4.60;;;4.20;;
13411;SDS011;6777;51.474;7.218;2022-08-19T13:08:29;5.20;;;4.67;;
13411;SDS011;6777;51.474;7.218;2022-08-19T13:10:57;4.90;;;4.50;;
13411;SDS011;6777;51.474;7.218;2022-08-19T13:13:33;4.60;;;4.30;;
13411;SDS011;6777;51.474;7.218;2022-08-19T13:16:00;4.47;;;4.10;;
13411;SDS011;6777;51.474;7.218;2022-08-19T13:18:30;4.53;;;4.23;;
13411;SDS011;6777;51.474;7.218;2022-08-19T13:21:01;4.20;;;3.90;;
13411;SDS011;6777;51.474;7.218;2022-08-19T13:23:29;4.63;;;4.23;;
13411;SDS011;6777;51.474;7.218;2022-08-19T13:29:35;4.77;;;4.37;;
13411;SDS011;6777;51.474;7.218;2022-08-19T13:32:19;4.70;;;4.40;;
13411;SDS011;6777;51.474;7.218;2022-08-19T13:35:06;4.90;;;4.40;;
13411;SDS011;6777;51.474;7.218;2022-08-19T13:37:33;4.30;;;4.00;;
13411;SDS011;6777;51.474;7.218;2022-08-19T13:40:11;4.43;;;4.03;;
13411;SDS011;6777;51.474;7.218;2022-08-19T13:42:43;4.57;;;4.27;;
13411;SDS011;6777;51.474;7.218;2022-08-19T13:45:13;4.47;;;4.07;;
13411;SDS011;6777;51.474;7.218;2022-08-19T13:47:41;4.27;;;3.97;;
13411;SDS011;6777;51.474;7.218;2022-08-19T13:50:10;4.20;;;3.90;;
13411;SDS011;6777;51.474;7.218;2022-08-19T13:52:40;4.30;;;3.97;;
13411;SDS011;6777;51.474;7.218;2022-08-19T13:55:08;5.07;;;4.03;;
13411;SDS011;6777;51.474;7.218;2022-08-19T13:57:42;4.30;;;4.00;;
13411;SDS011;6777;51.474;7.218;2022-08-19T14:00:12;4.40;;;4.10;;
13411;SDS011;6777;51.474;7.218;2022-08-19T14:02:43;4.43;;;4.13;;
13411;SDS011;6777;51.474;7.218;2022-08-19T14:05:13;4.23;;;3.93;;
13411;SDS011;6777;51.474;7.218;2022-08-19T14:07:42;4.33;;;3.90;;
13411;SDS011;6777;51.474;7.218;2022-08-19T14:10:10;4.50;;;4.20;;
13411;SDS011;6777;51.474;7.218;2022-08-19T14:12:39;4.73;;;4.33;;
13411;SDS011;6777;51.474;7.218;2022-08-19T14:15:07;4.43;;;4.13;;
13411;SDS011;6777;51.474;7.218;2022-08-19T14:17:37;4.93;;;3.97;;
13411;SDS011;6777;51.474;7.218;2022-08-19T14:20:06;4.73;;;4.40;;
13411;SDS011;6777;51.474;7.218;2022-08-19T14:22:37;4.30;;;4.00;;
13411;SDS011;6777;51.474;7.218;2022-08-19T14:25:12;4.83;;;4.40;;
13411;SDS011;6777;51.474;7.218;2022-08-19T14:27:42;4.40;;;4.10;;
13411;SDS011;6777;51.474;7.218;2022-08-19T14:30:11;3.93;;;3.63;;
13411;SDS011;6777;51.474;7.218;2022-08-19T14:32:41;4.13;;;3.83;;
13411;SDS011;6777;51.474;7.218;2022-08-19T14:38:40;4.13;;;3.83;;
13411;SDS011;6777;51.474;7.218;2022-08-19T14:41:13;3.87;;;3.57;;
13411;SDS011;6777;51.474;7.218;2022-08-19T14:43:44;4.53;;;3.47;;
13411;SDS011;6777;51.474;7.218;2022-08-19T14:46:15;3.93;;;3.63;;
13411;SDS011;6777;51.474;7.218;2022-08-19T14:48:45;3.87;;;3.57;;
13411;SDS011;6777;51.474;7.218;2022-08-19T14:51:13;4.63;;;3.43;;
13411;SDS011;6777;51.474;7.218;2022-08-19T14:53:41;4.53;;;3.30;;
13411;SDS011;6777;51.474;7.218;2022-08-19T14:56:09;3.40;;;3.13;;
13411;SDS011;6777;51.474;7.218;2022-08-19T15:02:51;5.60;;;3.53;;
13411;SDS011;6777;51.474;7.218;2022-08-19T15:05:19;4.50;;;4.10;;
13411;SDS011;6777;51.474;7.218;2022-08-19T15:07:46;4.50;;;4.10;;
13411;SDS011;6777;51.474;7.218;2022-08-19T15:13:56;4.00;;;3.60;;
13411;SDS011;6777;51.474;7.218;2022-08-19T15:16:24;5.07;;;3.53;;
13411;SDS011;6777;51.474;7.218;2022-08-19T15:18:54;4.27;;;3.87;;
13411;SDS011;6777;51.474;7.218;2022-08-19T15:21:24;4.47;;;3.97;;
13411;SDS011;6777;51.474;7.218;2022-08-19T15:23:52;5.40;;;3.40;;
13411;SDS011;6777;51.474;7.218;2022-08-19T15:26:20;4.00;;;3.70;;
13411;SDS011;6777;51.474;7.218;2022-08-19T15:28:47;3.97;;;3.67;;
13411;SDS011;6777;51.474;7.218;2022-08-19T15:31:18;5.23;;;3.80;;